This is the latest recevied weather packets stored in our database for station/object W2JGA. If no packets are shown the sender has not sent any weather packets the latest 1 day(s).
| Time | Temp. | Humidity | Pressure | Rain* | Wind** | Luminosity | Snow |
|---|---|---|---|---|---|---|---|
| 1778026157 | 23.89° C | 34% | 1012.4 hPa | 0 mm | 2.24 m/s, 197° | 328 W/m² | - |
| 1778025855 | 23.89° C | 35% | 1012.4 hPa | 0 mm | 2.68 m/s, 191° | 364 W/m² | - |
| 1778025551 | 24.44° C | 34% | 1012.9 hPa | 0 mm | 4.47 m/s, 253° | 386 W/m² | - |
| 1778025249 | 24.44° C | 34% | 1012.4 hPa | 0 mm | 3.58 m/s, 302° | 411 W/m² | - |
| 1778024946 | 24.44° C | 34% | 1012.4 hPa | 0 mm | 1.34 m/s, 174° | 419 W/m² | - |
| 1778024643 | 23.89° C | 35% | 1012.4 hPa | 0 mm | 3.13 m/s, 302° | 482 W/m² | - |
| 1778024340 | 23.89° C | 35% | 1012.1 hPa | 0 mm | 2.68 m/s, 237° | 452 W/m² | - |
| 1778024038 | 23.89° C | 35% | 1012.1 hPa | 0 mm | 3.58 m/s, 256° | 505 W/m² | - |
| 1778023735 | 23.89° C | 35% | 1012.4 hPa | 0 mm | 2.68 m/s, 233° | 514 W/m² | - |
| 1778023433 | 23.89° C | 35% | 1012.4 hPa | 0 mm | 4.02 m/s, 262° | 498 W/m² | - |
| 1778023129 | 24.44° C | 35% | 1012.4 hPa | 0 mm | 3.13 m/s, 266° | 146 W/m² | - |
| 1778022827 | 23.89° C | 35% | 1012.1 hPa | 0 mm | 2.24 m/s, 308° | 540 W/m² | - |
| 1778022525 | 23.89° C | 35% | 1012.4 hPa | 0 mm | 3.13 m/s, 233° | 515 W/m² | - |
| 1778022222 | 23.89° C | 35% | 1012.4 hPa | 0 mm | 4.02 m/s, 260° | 116 W/m² | - |
| 1778021918 | 24.44° C | 35% | 1012.4 hPa | 0 mm | 2.68 m/s, 221° | 539 W/m² | - |
| 1778021617 | 23.89° C | 34% | 1012.4 hPa | 0 mm | 2.68 m/s, 212° | 553 W/m² | - |
| 1778021316 | 24.44° C | 34% | 1012.4 hPa | 0 mm | 4.02 m/s, 242° | 561 W/m² | - |
| 1778021015 | 23.89° C | 34% | 1012.9 hPa | 0 mm | 3.58 m/s, 249° | 567 W/m² | - |
| 1778020711 | 24.44° C | 33% | 1012.9 hPa | 0 mm | 4.02 m/s, 212° | 583 W/m² | - |
| 1778020409 | 24.44° C | 34% | 1012.9 hPa | 0 mm | 4.92 m/s, 271° | 609 W/m² | - |
| 1778020104 | 23.89° C | 34% | 1012.9 hPa | 0 mm | 3.13 m/s, 223° | 627 W/m² | - |
| 1778019800 | 23.89° C | 36% | 1012.9 hPa | 0 mm | 2.24 m/s, 200° | 623 W/m² | - |
| 1778019498 | 23.89° C | 36% | 1012.9 hPa | 0 mm | 3.58 m/s, 216° | 615 W/m² | - |
| 1778019194 | 23.89° C | 35% | 1012.9 hPa | 0 mm | 4.47 m/s, 211° | 638 W/m² | - |
| 1778018892 | 23.89° C | 36% | 1012.9 hPa | 0 mm | 4.02 m/s, 242° | 646 W/m² | - |
* Rain latest hour (hover to see other rain measurements)
** Current wind speed in m/s (hover to see current wind gust speed)